createdAt,value
2023-05-05T00:01:09.035Z,5.33
2023-05-05T00:03:35.814Z,5.85
2023-05-05T00:06:03.158Z,5.72
2023-05-05T00:08:30.030Z,5.55
2023-05-05T00:10:57.449Z,6.07
2023-05-05T00:13:24.407Z,5.73
2023-05-05T00:15:52.481Z,5.75
2023-05-05T00:18:19.608Z,6.82
2023-05-05T00:20:47.435Z,6.10
2023-05-05T00:23:19.669Z,6.07
2023-05-05T00:25:46.252Z,6.17
2023-05-05T00:28:14.368Z,6.60
2023-05-05T00:30:41.413Z,6.32
2023-05-05T00:33:07.889Z,6.30
2023-05-05T00:35:34.619Z,5.30
2023-05-05T00:38:01.002Z,5.23
2023-05-05T00:40:27.724Z,5.97
2023-05-05T00:42:54.433Z,5.60
2023-05-05T00:45:20.869Z,5.90
2023-05-05T00:48:06.577Z,5.97
2023-05-05T00:50:33.130Z,6.03
2023-05-05T00:53:04.915Z,5.60
2023-05-05T00:55:32.238Z,5.85
2023-05-05T00:58:00.384Z,5.60
2023-05-05T01:00:27.871Z,5.47
2023-05-05T01:02:54.512Z,5.50
2023-05-05T01:05:23.153Z,5.00
2023-05-05T01:08:18.434Z,5.47
2023-05-05T01:11:04.065Z,5.90
2023-05-05T01:13:39.509Z,6.00
2023-05-05T01:16:18.157Z,5.83
2023-05-05T01:18:47.764Z,5.60
2023-05-05T01:21:23.526Z,6.13
2023-05-05T01:24:08.739Z,6.70
2023-05-05T01:26:55.206Z,6.22
2023-05-05T01:29:44.918Z,7.03
2023-05-05T01:32:14.373Z,7.30
2023-05-05T01:34:49.795Z,7.28
2023-05-05T01:37:22.812Z,7.25
2023-05-05T01:39:54.334Z,7.32
2023-05-05T01:42:22.320Z,7.43
2023-05-05T01:44:50.828Z,7.65
2023-05-05T01:47:20.839Z,6.95
2023-05-05T01:49:48.680Z,6.80
2023-05-05T01:52:16.170Z,6.25
2023-05-05T01:54:43.983Z,6.07
2023-05-05T01:57:11.691Z,6.85
2023-05-05T01:59:39.719Z,6.07
2023-05-05T02:02:08.274Z,6.05
2023-05-05T02:04:37.305Z,6.30
2023-05-05T02:07:05.012Z,6.30
2023-05-05T02:09:32.716Z,5.70
2023-05-05T02:12:00.534Z,5.88
2023-05-05T02:14:29.483Z,5.90
2023-05-05T02:16:58.058Z,5.97
2023-05-05T02:19:34.287Z,5.20
2023-05-05T02:22:00.873Z,5.70
2023-05-05T02:24:27.340Z,5.05
2023-05-05T02:26:56.459Z,5.35
2023-05-05T02:29:29.517Z,5.10
2023-05-05T02:32:02.102Z,4.87
2023-05-05T02:34:34.882Z,5.13
2023-05-05T02:37:05.232Z,4.32
2023-05-05T02:39:35.361Z,4.97
2023-05-05T02:42:03.913Z,4.30
2023-05-05T02:44:32.895Z,4.03
2023-05-05T02:46:59.383Z,4.32
2023-05-05T02:49:25.885Z,4.32
2023-05-05T02:51:52.455Z,4.63
2023-05-05T02:54:19.370Z,4.47
2023-05-05T02:56:54.302Z,4.73
2023-05-05T02:59:50.840Z,4.30
2023-05-05T03:02:17.213Z,4.80
2023-05-05T03:04:50.706Z,4.57
2023-05-05T03:07:33.399Z,4.22
2023-05-05T03:10:13.823Z,4.90
2023-05-05T03:12:46.767Z,4.53
2023-05-05T03:15:14.213Z,4.13
2023-05-05T03:17:43.022Z,4.30
2023-05-05T03:20:11.128Z,4.47
2023-05-05T03:22:38.122Z,4.07
2023-05-05T03:25:05.042Z,3.90
2023-05-05T03:27:31.648Z,4.45
2023-05-05T03:29:58.044Z,3.90
2023-05-05T03:32:24.470Z,4.20
2023-05-05T03:34:50.967Z,4.37
2023-05-05T03:37:17.304Z,3.90
2023-05-05T03:39:43.645Z,3.65
2023-05-05T03:42:10.072Z,3.88
2023-05-05T03:44:36.578Z,3.25
2023-05-05T03:47:02.990Z,3.20
2023-05-05T03:49:29.425Z,4.10
2023-05-05T03:51:56.195Z,3.88
2023-05-05T03:54:22.646Z,4.43
2023-05-05T03:56:49.096Z,4.38
2023-05-05T03:59:15.920Z,4.43
2023-05-05T04:01:42.244Z,4.15
2023-05-05T04:04:09.452Z,4.13
2023-05-05T04:06:35.957Z,4.30
2023-05-05T04:09:03.186Z,4.55
2023-05-05T04:11:29.599Z,4.33
2023-05-05T04:13:56.160Z,4.43
2023-05-05T04:16:22.834Z,4.80
2023-05-05T04:18:49.527Z,4.90
2023-05-05T04:21:16.082Z,4.30
2023-05-05T04:23:42.523Z,4.40
2023-05-05T04:26:08.941Z,4.32
2023-05-05T04:28:35.344Z,4.25
2023-05-05T04:31:04.780Z,4.70
2023-05-05T04:33:31.261Z,4.82
2023-05-05T04:35:58.278Z,4.07
2023-05-05T04:38:24.873Z,4.68
2023-05-05T04:40:51.310Z,3.95
2023-05-05T04:43:17.719Z,4.18
2023-05-05T04:45:54.189Z,4.13
2023-05-05T04:48:20.838Z,4.20
2023-05-05T04:50:47.398Z,3.95
2023-05-05T04:53:13.854Z,4.15
2023-05-05T04:55:40.328Z,4.28
2023-05-05T04:58:06.669Z,4.38
2023-05-05T05:00:33.175Z,4.83
2023-05-05T05:02:59.633Z,4.75
2023-05-05T05:05:26.094Z,4.40
2023-05-05T05:07:52.574Z,4.03
2023-05-05T05:10:19.180Z,4.10
2023-05-05T05:12:47.914Z,4.97
2023-05-05T05:15:14.563Z,4.53
2023-05-05T05:17:41.030Z,4.25
2023-05-05T05:20:08.231Z,4.68
2023-05-05T05:22:38.093Z,5.05
2023-05-05T05:25:04.849Z,5.07
2023-05-05T05:27:31.376Z,4.75
2023-05-05T05:29:59.074Z,4.82
2023-05-05T05:32:25.460Z,4.35
2023-05-05T05:34:52.073Z,4.75
2023-05-05T05:37:18.506Z,5.00
2023-05-05T05:39:51.993Z,5.18
2023-05-05T05:42:18.569Z,5.05
2023-05-05T05:44:45.210Z,5.47
2023-05-05T05:47:11.802Z,5.30
2023-05-05T05:49:38.217Z,5.17
2023-05-05T05:52:04.706Z,5.70
2023-05-05T05:54:32.636Z,5.57
2023-05-05T05:56:59.128Z,5.70
2023-05-05T05:59:25.723Z,5.90
2023-05-05T06:01:52.116Z,5.67
2023-05-05T06:04:18.559Z,6.65
2023-05-05T06:06:44.968Z,6.00
2023-05-05T06:09:11.452Z,6.05
2023-05-05T06:11:37.786Z,6.13
2023-05-05T06:14:04.206Z,6.10
2023-05-05T06:16:30.804Z,6.40
2023-05-05T06:18:57.285Z,6.13
2023-05-05T06:21:23.903Z,5.45
2023-05-05T06:23:50.904Z,5.50
2023-05-05T06:26:17.351Z,5.00
2023-05-05T06:28:43.739Z,5.10
2023-05-05T06:31:10.255Z,4.78
2023-05-05T06:33:37.790Z,6.03
2023-05-05T06:36:04.466Z,4.68
2023-05-05T06:38:31.018Z,4.73
2023-05-05T06:40:58.531Z,4.50
2023-05-05T06:43:25.216Z,4.63
2023-05-05T06:45:51.949Z,4.22
2023-05-05T06:48:18.485Z,4.30
2023-05-05T06:50:45.099Z,4.40
2023-05-05T06:53:11.641Z,4.75
2023-05-05T06:55:38.155Z,4.57
2023-05-05T06:58:04.525Z,4.38
2023-05-05T07:00:31.023Z,4.05
2023-05-05T07:02:57.466Z,5.03
2023-05-05T07:05:23.998Z,4.57
2023-05-05T07:07:54.794Z,4.38
2023-05-05T07:10:22.636Z,4.68
2023-05-05T07:12:49.936Z,4.03
2023-05-05T07:15:26.608Z,3.33
2023-05-05T07:17:54.948Z,3.40
2023-05-05T07:20:21.464Z,2.95
2023-05-05T07:22:47.878Z,3.03
2023-05-05T07:25:14.389Z,2.60
2023-05-05T07:27:40.968Z,3.73
2023-05-05T07:30:11.952Z,3.63
2023-05-05T07:32:40.791Z,3.20
2023-05-05T07:35:07.409Z,3.10
2023-05-05T07:37:34.096Z,3.28
2023-05-05T07:40:00.515Z,2.87
2023-05-05T07:42:26.949Z,2.88
2023-05-05T07:44:53.352Z,2.50
2023-05-05T07:47:19.869Z,2.35
2023-05-05T07:49:46.576Z,2.65
2023-05-05T07:52:13.106Z,2.10
2023-05-05T07:54:39.600Z,1.98
2023-05-05T07:57:06.092Z,2.30
2023-05-05T07:59:34.722Z,2.15
2023-05-05T08:02:01.444Z,2.30
2023-05-05T08:04:27.982Z,1.80
2023-05-05T08:06:54.767Z,2.03
2023-05-05T08:09:21.403Z,1.80
2023-05-05T08:11:48.011Z,2.00
2023-05-05T08:14:15.168Z,2.10
2023-05-05T08:16:41.730Z,2.00
2023-05-05T08:19:21.198Z,1.42
2023-05-05T08:21:54.482Z,1.63
2023-05-05T08:24:20.840Z,1.63
2023-05-05T08:26:47.277Z,1.15
2023-05-05T08:29:13.642Z,1.53
2023-05-05T08:31:40.149Z,1.30
2023-05-05T08:34:06.891Z,1.50
2023-05-05T08:36:33.716Z,1.70
2023-05-05T08:39:00.712Z,1.10
2023-05-05T08:41:27.999Z,1.10
2023-05-05T08:43:54.611Z,1.38
2023-05-05T08:46:22.067Z,1.42
2023-05-05T08:48:48.681Z,1.13
2023-05-05T08:51:19.918Z,1.30
2023-05-05T08:53:55.854Z,1.13
2023-05-05T08:56:25.791Z,1.63
2023-05-05T08:58:52.637Z,1.50
2023-05-05T09:01:19.348Z,1.00
2023-05-05T09:03:46.228Z,1.13
2023-05-05T09:06:13.139Z,1.27
2023-05-05T09:08:40.322Z,1.20
2023-05-05T09:11:06.907Z,1.35
2023-05-05T09:13:33.646Z,1.05
2023-05-05T09:16:00.023Z,1.45
2023-05-05T09:18:26.845Z,1.20
2023-05-05T09:20:53.427Z,1.63
2023-05-05T09:23:20.963Z,1.30
2023-05-05T09:26:02.013Z,1.30
2023-05-05T09:28:28.555Z,1.20
2023-05-05T09:30:55.041Z,1.20
2023-05-05T09:33:31.563Z,1.77
2023-05-05T09:35:58.745Z,2.63
2023-05-05T09:38:25.256Z,1.30
2023-05-05T09:40:53.193Z,1.60
2023-05-05T09:43:21.899Z,1.70
2023-05-05T09:45:49.515Z,1.55
2023-05-05T09:48:30.546Z,1.33
2023-05-05T09:50:58.338Z,1.40
2023-05-05T09:53:26.674Z,1.45
2023-05-05T09:55:58.068Z,1.47
2023-05-05T09:58:26.268Z,2.30
2023-05-05T10:00:53.894Z,2.60
2023-05-05T10:03:20.892Z,4.20
2023-05-05T10:05:56.435Z,3.65
2023-05-05T10:08:25.905Z,3.60
2023-05-05T10:10:52.513Z,3.50
2023-05-05T10:13:21.391Z,3.35
2023-05-05T10:15:51.356Z,0.98
2023-05-05T10:18:21.492Z,0.98
2023-05-05T10:20:52.027Z,1.03
2023-05-05T10:23:20.435Z,2.50
2023-05-05T10:25:54.450Z,2.00
2023-05-05T10:28:31.787Z,2.00
2023-05-05T10:31:00.535Z,1.10
2023-05-05T10:33:36.391Z,0.90
2023-05-05T10:36:06.539Z,1.00
2023-05-05T10:38:34.121Z,1.10
2023-05-05T10:41:02.139Z,1.10
2023-05-05T10:43:30.827Z,0.90
2023-05-05T10:45:58.934Z,0.80
2023-05-05T10:48:32.901Z,1.08
2023-05-05T10:51:08.266Z,0.70
2023-05-05T10:54:27.612Z,0.70
2023-05-05T10:56:54.535Z,1.33
2023-05-05T10:59:36.344Z,1.07
2023-05-05T11:02:28.951Z,1.10
2023-05-05T11:05:21.412Z,1.10
2023-05-05T11:07:50.536Z,1.05
2023-05-05T11:10:20.783Z,0.85
2023-05-05T11:13:00.112Z,1.00
2023-05-05T11:15:26.661Z,1.30
2023-05-05T11:17:54.998Z,1.15
2023-05-05T11:20:37.119Z,0.90
2023-05-05T11:23:03.695Z,1.20
2023-05-05T11:25:43.220Z,1.30
2023-05-05T11:28:18.699Z,1.25
2023-05-05T11:30:58.094Z,1.30
2023-05-05T11:33:39.907Z,1.85
2023-05-05T11:36:11.739Z,1.90
2023-05-05T11:39:05.456Z,1.80
2023-05-05T11:42:26.103Z,2.63
2023-05-05T11:44:53.394Z,3.35
2023-05-05T11:47:19.924Z,3.13
2023-05-05T11:49:46.462Z,3.40
2023-05-05T11:52:13.934Z,3.23
2023-05-05T11:54:48.616Z,3.13
2023-05-05T11:57:21.103Z,2.58
2023-05-05T11:59:53.435Z,3.17
2023-05-05T12:02:20.676Z,2.85
2023-05-05T12:04:47.791Z,2.90
2023-05-05T12:07:18.386Z,2.65
2023-05-05T12:09:46.244Z,2.50
2023-05-05T12:12:13.710Z,2.53
2023-05-05T12:14:47.339Z,2.78
2023-05-05T12:17:14.141Z,2.50
2023-05-05T12:19:54.297Z,2.20
2023-05-05T12:22:27.420Z,2.83
2023-05-05T12:25:04.037Z,2.45
2023-05-05T12:27:30.666Z,2.38
2023-05-05T12:30:10.274Z,2.60
2023-05-05T12:32:36.936Z,2.78
2023-05-05T12:35:03.638Z,2.60
2023-05-05T12:37:30.295Z,2.55
2023-05-05T12:39:56.848Z,2.72
2023-05-05T12:42:23.411Z,2.57
2023-05-05T12:44:50.087Z,2.67
2023-05-05T12:47:32.851Z,2.60
2023-05-05T12:50:00.327Z,2.40
2023-05-05T12:52:45.676Z,3.30
2023-05-05T12:55:12.923Z,2.60
2023-05-05T12:57:58.039Z,2.60
2023-05-05T13:00:25.213Z,3.00
2023-05-05T13:02:52.947Z,3.28
2023-05-05T13:05:32.742Z,3.45
2023-05-05T13:07:59.262Z,3.63
2023-05-05T13:10:25.711Z,3.80
2023-05-05T13:12:55.322Z,3.30
2023-05-05T13:15:21.794Z,3.97
2023-05-05T13:17:48.273Z,3.50
2023-05-05T13:20:15.430Z,3.13
2023-05-05T13:22:41.811Z,3.25
2023-05-05T13:25:08.541Z,3.25
2023-05-05T13:27:35.226Z,3.17
2023-05-05T13:30:01.806Z,3.13
2023-05-05T13:32:28.233Z,2.87
2023-05-05T13:34:54.599Z,3.35
2023-05-05T13:37:21.318Z,3.38
2023-05-05T13:39:47.689Z,3.35
2023-05-05T13:42:14.088Z,3.20
2023-05-05T13:44:40.488Z,2.70
2023-05-05T13:47:07.371Z,3.25
2023-05-05T13:49:35.036Z,2.35
2023-05-05T13:52:01.487Z,2.65
2023-05-05T13:54:28.035Z,2.47
2023-05-05T13:56:54.429Z,2.53
2023-05-05T13:59:21.755Z,2.17
2023-05-05T14:01:48.829Z,2.10
2023-05-05T14:04:15.445Z,1.88
2023-05-05T14:06:41.969Z,2.08
2023-05-05T14:09:08.383Z,1.77
2023-05-05T14:11:35.002Z,1.40
2023-05-05T14:14:01.631Z,1.13
2023-05-05T14:16:28.095Z,1.10
2023-05-05T14:18:54.548Z,0.85
2023-05-05T14:21:21.004Z,1.20
2023-05-05T14:23:47.356Z,0.88
2023-05-05T14:26:13.812Z,0.90
2023-05-05T14:28:40.265Z,0.80
2023-05-05T14:31:06.808Z,1.00
2023-05-05T14:33:33.246Z,1.13
2023-05-05T14:36:00.048Z,0.65
2023-05-05T14:38:26.482Z,0.90
2023-05-05T14:40:53.069Z,1.00
2023-05-05T14:43:20.649Z,0.90
2023-05-05T14:45:47.082Z,1.00
2023-05-05T14:48:13.559Z,1.13
2023-05-05T14:50:42.298Z,1.20
2023-05-05T14:53:08.863Z,1.02
2023-05-05T14:55:35.397Z,1.30
2023-05-05T14:58:01.757Z,1.00
2023-05-05T15:00:28.565Z,1.02
2023-05-05T15:02:55.088Z,1.00
2023-05-05T15:05:21.552Z,1.10
2023-05-05T15:07:48.035Z,1.10
2023-05-05T15:10:15.018Z,1.10
2023-05-05T15:12:42.713Z,1.23
2023-05-05T15:15:09.934Z,1.00
2023-05-05T15:17:38.610Z,0.70
2023-05-05T15:20:06.709Z,1.10
2023-05-05T15:22:33.163Z,1.20
2023-05-05T15:24:59.714Z,1.20
2023-05-05T15:27:26.365Z,0.88
2023-05-05T15:29:52.972Z,1.02
2023-05-05T15:32:19.325Z,0.88
2023-05-05T15:34:46.796Z,1.20
2023-05-05T15:37:14.113Z,1.10
2023-05-05T15:39:40.518Z,0.90
2023-05-05T15:42:07.379Z,0.80
2023-05-05T15:44:33.749Z,1.15
2023-05-05T15:47:00.236Z,1.10
2023-05-05T15:49:26.643Z,0.82
2023-05-05T15:51:52.975Z,0.45
2023-05-05T15:54:19.412Z,1.02
2023-05-05T15:56:45.906Z,1.00
2023-05-05T15:59:12.326Z,0.80
2023-05-05T16:01:39.034Z,0.80
2023-05-05T16:04:05.491Z,1.00
2023-05-05T16:06:32.049Z,0.75
2023-05-05T16:08:58.682Z,0.70
2023-05-05T16:11:26.526Z,0.70
2023-05-05T16:13:53.262Z,0.73
2023-05-05T16:16:19.685Z,0.70
2023-05-05T16:18:46.368Z,1.02
2023-05-05T16:21:13.157Z,0.82
2023-05-05T16:23:39.852Z,1.43
2023-05-05T16:26:06.238Z,1.23
2023-05-05T16:28:34.153Z,1.20
2023-05-05T16:31:02.300Z,1.25
2023-05-05T16:33:29.100Z,0.77
2023-05-05T16:35:55.942Z,0.70
2023-05-05T16:38:22.670Z,1.45
2023-05-05T16:40:49.027Z,0.85
2023-05-05T16:43:15.621Z,0.90
2023-05-05T16:45:42.099Z,0.90
2023-05-05T16:48:09.169Z,0.73
2023-05-05T16:50:35.944Z,0.70
2023-05-05T16:53:02.335Z,1.60
2023-05-05T16:55:28.815Z,0.70
2023-05-05T16:57:55.312Z,0.60
2023-05-05T17:00:21.824Z,0.40
2023-05-05T17:02:48.374Z,0.60
2023-05-05T17:05:15.078Z,0.40
2023-05-05T17:07:41.523Z,0.63
2023-05-05T17:10:08.579Z,0.60
2023-05-05T17:12:35.049Z,0.60
2023-05-05T17:15:02.047Z,0.60
2023-05-05T17:17:28.604Z,0.65
2023-05-05T17:19:54.981Z,0.47
2023-05-05T17:22:21.764Z,0.40
2023-05-05T17:24:48.221Z,0.40
2023-05-05T17:27:14.679Z,0.50
2023-05-05T17:29:41.309Z,0.40
2023-05-05T17:32:10.556Z,0.50
2023-05-05T17:34:37.356Z,0.40
2023-05-05T17:37:03.732Z,0.60
2023-05-05T17:39:30.975Z,0.50
2023-05-05T17:41:57.431Z,0.40
2023-05-05T17:44:23.827Z,0.52
2023-05-05T17:46:50.570Z,0.57
2023-05-05T17:49:16.919Z,0.60
2023-05-05T17:51:43.314Z,0.60
2023-05-05T17:54:09.786Z,0.90
2023-05-05T17:56:36.730Z,0.68
2023-05-05T17:59:03.201Z,0.68
2023-05-05T18:01:29.637Z,0.50
2023-05-05T18:03:56.165Z,0.50
2023-05-05T18:06:22.567Z,0.50
2023-05-05T18:08:49.297Z,0.73
2023-05-05T18:11:15.745Z,0.80
2023-05-05T18:13:43.218Z,0.50
2023-05-05T18:16:09.733Z,0.75
2023-05-05T18:18:36.317Z,1.05
2023-05-05T18:21:02.739Z,0.77
2023-05-05T18:23:29.241Z,0.80
2023-05-05T18:25:55.698Z,0.80
2023-05-05T18:28:22.102Z,0.90
2023-05-05T18:30:48.633Z,0.80
2023-05-05T18:33:15.013Z,1.00
2023-05-05T18:35:41.485Z,0.80
2023-05-05T18:38:07.991Z,0.83
2023-05-05T18:40:34.514Z,0.73
2023-05-05T18:43:00.985Z,0.60
2023-05-05T18:45:27.484Z,0.85
2023-05-05T18:47:53.992Z,0.60
2023-05-05T18:50:20.415Z,0.80
2023-05-05T18:52:46.812Z,0.60
2023-05-05T18:55:13.235Z,1.00
2023-05-05T18:57:39.788Z,1.00
2023-05-05T19:00:06.974Z,0.90
2023-05-05T19:02:33.478Z,1.10
2023-05-05T19:04:59.958Z,1.17
2023-05-05T19:07:34.883Z,1.10
2023-05-05T19:10:04.376Z,1.00
2023-05-05T19:12:30.917Z,1.20
2023-05-05T19:14:57.396Z,1.70
2023-05-05T19:17:23.999Z,1.50
2023-05-05T19:19:50.659Z,1.20
2023-05-05T19:22:21.743Z,1.25
2023-05-05T19:24:48.143Z,1.30
2023-05-05T19:27:16.565Z,1.03
2023-05-05T19:29:43.680Z,1.00
2023-05-05T19:32:10.293Z,1.38
2023-05-05T19:34:37.050Z,1.10
2023-05-05T19:37:03.593Z,1.35
2023-05-05T19:39:30.135Z,1.50
2023-05-05T19:41:56.640Z,1.38
2023-05-05T19:44:23.705Z,1.77
2023-05-05T19:46:50.391Z,1.50
2023-05-05T19:49:16.885Z,2.03
2023-05-05T19:51:43.775Z,3.90
2023-05-05T19:54:10.400Z,4.30
2023-05-05T19:56:36.906Z,4.82
2023-05-05T19:59:05.302Z,3.55
2023-05-05T20:01:33.076Z,3.47
2023-05-05T20:03:59.971Z,3.00
2023-05-05T20:06:26.962Z,2.40
2023-05-05T20:08:54.754Z,2.25
2023-05-05T20:11:21.840Z,2.60
2023-05-05T20:13:49.634Z,2.22
2023-05-05T20:16:16.379Z,2.33
2023-05-05T20:18:42.966Z,2.40
2023-05-05T20:21:09.381Z,2.17
2023-05-05T20:23:36.489Z,2.00
2023-05-05T20:26:03.138Z,2.17
2023-05-05T20:28:31.505Z,2.17
2023-05-05T20:30:57.986Z,1.77
2023-05-05T20:33:24.544Z,1.73
2023-05-05T20:35:50.943Z,1.85
2023-05-05T20:38:17.396Z,1.85
2023-05-05T20:40:43.869Z,1.90
2023-05-05T20:43:10.234Z,2.20
2023-05-05T20:45:37.107Z,2.05
2023-05-05T20:48:05.610Z,2.20
2023-05-05T20:50:32.258Z,2.40
2023-05-05T20:52:58.826Z,2.07
2023-05-05T20:55:25.770Z,2.05
2023-05-05T20:57:52.268Z,2.30
2023-05-05T21:00:18.697Z,2.72
2023-05-05T21:02:45.252Z,2.30
2023-05-05T21:05:11.816Z,2.23
2023-05-05T21:07:38.369Z,2.50
2023-05-05T21:10:05.399Z,2.83
2023-05-05T21:12:33.952Z,2.42
2023-05-05T21:15:00.532Z,2.72
2023-05-05T21:17:27.246Z,2.43
2023-05-05T21:19:54.304Z,2.15
2023-05-05T21:22:21.462Z,2.00
2023-05-05T21:24:48.151Z,1.92
2023-05-05T21:27:14.772Z,2.28
2023-05-05T21:29:41.184Z,2.20
2023-05-05T21:32:09.164Z,2.08
2023-05-05T21:34:36.108Z,2.20
2023-05-05T21:37:02.882Z,1.95
2023-05-05T21:39:30.789Z,2.20
2023-05-05T21:41:57.134Z,1.90
2023-05-05T21:44:25.448Z,1.83
2023-05-05T21:46:55.638Z,2.00
2023-05-05T21:49:22.200Z,2.13
2023-05-05T21:51:48.789Z,2.17
2023-05-05T21:54:15.799Z,1.80
2023-05-05T21:56:42.292Z,2.10
2023-05-05T21:59:08.817Z,2.22
2023-05-05T22:01:35.405Z,2.05
2023-05-05T22:04:02.077Z,2.60
2023-05-05T22:06:28.584Z,2.80
2023-05-05T22:08:56.656Z,2.45
2023-05-05T22:11:23.156Z,2.30
2023-05-05T22:13:49.505Z,2.30
2023-05-05T22:16:17.584Z,1.95
2023-05-05T22:18:44.319Z,1.80
2023-05-05T22:21:11.021Z,2.60
2023-05-05T22:23:39.010Z,2.17
2023-05-05T22:26:05.636Z,1.67
2023-05-05T22:28:32.206Z,1.88
2023-05-05T22:30:58.651Z,2.10
2023-05-05T22:33:25.125Z,2.30
2023-05-05T22:35:52.081Z,2.38
2023-05-05T22:38:18.681Z,2.10
2023-05-05T22:40:45.580Z,2.08
2023-05-05T22:43:12.188Z,2.20
2023-05-05T22:45:38.674Z,2.00
2023-05-05T22:48:05.819Z,2.10
2023-05-05T22:50:32.381Z,2.22
2023-05-05T22:52:58.824Z,2.08
2023-05-05T22:55:25.401Z,1.73
2023-05-05T22:57:52.633Z,2.10
2023-05-05T23:00:19.555Z,1.90
2023-05-05T23:02:46.193Z,1.80
2023-05-05T23:05:12.869Z,2.30
2023-05-05T23:07:39.410Z,2.13
2023-05-05T23:10:06.356Z,2.20
2023-05-05T23:12:33.045Z,2.30
2023-05-05T23:14:59.553Z,2.10
2023-05-05T23:17:26.086Z,2.65
2023-05-05T23:19:52.643Z,2.60
2023-05-05T23:22:19.080Z,2.80
2023-05-05T23:24:45.713Z,2.83
2023-05-05T23:27:12.764Z,3.22
2023-05-05T23:29:39.405Z,3.53
2023-05-05T23:32:06.348Z,4.03
2023-05-05T23:34:32.786Z,3.78
2023-05-05T23:36:59.201Z,3.50
2023-05-05T23:39:25.682Z,4.00
2023-05-05T23:41:52.061Z,4.00
2023-05-05T23:44:18.560Z,3.17
2023-05-05T23:46:44.956Z,3.42
2023-05-05T23:49:11.427Z,3.20
2023-05-05T23:51:37.804Z,2.92
2023-05-05T23:54:04.293Z,2.80
2023-05-05T23:56:31.027Z,3.73
2023-05-05T23:58:57.479Z,4.55
